Pagrindinis puslapis
METAR-TAF:

METAR-TAF

Oro uostai :

Hobart, Oklahoma, Jungtinės Amerikos Valstijos

platuma: 34-59-22N, ilguma: 099-03-09W, Aukštis: 476 m

Dabartinis oras

Ataskaita buvo paskelbta 46 minutes, ne 23:11 UTC
Vėjas 15 kt iš Rytų
Temperatūra 12°C
Drėgmė 94%
Slėgis 1014 hPa
Matomumas: 6.4 km
Su prošvaistėmis ne aukštis 800 ft
Apsiniaukę ne aukštis 1500 ft
lietus, rūkana

METAR: KHBR 302311Z AUTO 10015KT 4SM -RA BR BKN008 OVC015 12/11 A2993 RMK AO2 PRESFR P0000 T01170106

Laikas: 18:57 (23:57 UTC)


TAF: trūkstamas

Orai ataskaitas ir orų prognozės (METAR, TAF).

turimą stotys yra geltonos ir raudonos taškus žemėlapyje.

Perkelti pele per norėdami pamatyti stoties vardą.

Tada spustelėkite, norėdami matyti oro stebėjimo ir prognozės.

Norėdami pakeisti žemėlapį: spustelėkite ant žalios mygtukų su juodo kryžiaus žemyn,; žalią mygtuką su brūkšneliu, jei norite nutolinti; arba žalių rodyklių gretimoms žemėlapius.


METAR-TAF: